createdAt,value
2018-06-30T00:00:31.688Z,100920.64
2018-06-30T00:03:00.160Z,100924.82
2018-06-30T00:05:28.551Z,100924.77
2018-06-30T00:07:56.967Z,100923.05
2018-06-30T00:10:31.653Z,100924.75
2018-06-30T00:13:01.401Z,100925.22
2018-06-30T00:15:30.180Z,100925.72
2018-06-30T00:17:58.659Z,100922.84
2018-06-30T00:20:27.069Z,100917.52
2018-06-30T00:22:55.915Z,100919.28
2018-06-30T00:25:24.318Z,100912.06
2018-06-30T00:27:55.574Z,100909.45
2018-06-30T00:30:25.096Z,100914.22
2018-06-30T00:32:53.823Z,100909.77
2018-06-30T00:35:22.255Z,100909.81
2018-06-30T00:37:50.657Z,100910.52
2018-06-30T00:40:19.090Z,100909.72
2018-06-30T00:42:47.496Z,100907.11
2018-06-30T00:45:16.808Z,100902.66
2018-06-30T00:47:45.267Z,100899.50
2018-06-30T00:50:13.964Z,100898.50
2018-06-30T00:52:42.411Z,100901.05
2018-06-30T00:55:11.135Z,100904.16
2018-06-30T00:57:39.602Z,100899.80
2018-06-30T01:00:08.514Z,100899.80
2018-06-30T01:02:36.951Z,100904.20
2018-06-30T01:05:05.450Z,100899.62
2018-06-30T01:07:33.912Z,100905.30
2018-06-30T01:10:02.396Z,100903.59
2018-06-30T01:12:30.883Z,100905.44
2018-06-30T01:14:59.333Z,100902.39
2018-06-30T01:17:27.755Z,100900.78
2018-06-30T01:19:56.829Z,100908.15
2018-06-30T01:22:25.208Z,100908.34
2018-06-30T01:24:53.619Z,100906.72
2018-06-30T01:27:21.988Z,100904.03
2018-06-30T01:29:50.348Z,100905.28
2018-06-30T01:32:18.712Z,100902.06
2018-06-30T01:34:47.111Z,100903.09
2018-06-30T01:37:15.572Z,100895.84
2018-06-30T01:39:44.032Z,100899.88
2018-06-30T01:42:12.450Z,100902.20
2018-06-30T01:44:40.828Z,100896.41
2018-06-30T01:47:09.338Z,100897.72
2018-06-30T01:49:38.082Z,100898.19
2018-06-30T01:52:07.032Z,100897.22
2018-06-30T01:54:35.421Z,100901.23
2018-06-30T01:57:03.881Z,100903.61
2018-06-30T01:59:32.282Z,100897.27
2018-06-30T02:02:01.000Z,100894.95
2018-06-30T02:04:29.463Z,100895.64
2018-06-30T02:06:57.892Z,100895.20
2018-06-30T02:09:26.302Z,100890.45
2018-06-30T02:11:54.704Z,100897.89
2018-06-30T02:14:23.113Z,100887.66
2018-06-30T02:16:51.554Z,100889.41
2018-06-30T02:19:19.924Z,100889.41
2018-06-30T02:21:48.329Z,100896.06
2018-06-30T02:24:16.852Z,100893.88
2018-06-30T02:26:45.244Z,100898.95
2018-06-30T02:29:13.645Z,100890.45
2018-06-30T02:31:42.077Z,100889.61
2018-06-30T02:34:10.482Z,100890.05
2018-06-30T02:36:38.901Z,100884.48
2018-06-30T02:39:08.115Z,100881.98
2018-06-30T02:41:36.535Z,100884.59
2018-06-30T02:44:05.000Z,100886.01
2018-06-30T02:46:33.724Z,100883.52
2018-06-30T02:49:02.423Z,100885.27
2018-06-30T02:51:30.970Z,100881.66
2018-06-30T02:53:59.383Z,100881.42
2018-06-30T02:56:27.820Z,100879.41
2018-06-30T02:58:56.249Z,100882.86
2018-06-30T03:01:24.683Z,100879.75
2018-06-30T03:03:53.070Z,100883.58
2018-06-30T03:06:21.482Z,100882.80
2018-06-30T03:08:49.948Z,100880.81
2018-06-30T03:11:18.601Z,100875.80
2018-06-30T03:13:47.084Z,100808.80
2018-06-30T03:16:17.497Z,100873.47
2018-06-30T03:18:46.662Z,100878.02
2018-06-30T03:21:15.048Z,100869.38
2018-06-30T03:23:43.596Z,100876.27
2018-06-30T03:26:12.105Z,100874.97
2018-06-30T03:28:40.586Z,100883.30
2018-06-30T03:31:09.829Z,100875.67
2018-06-30T03:33:38.266Z,100878.05
2018-06-30T03:36:06.690Z,100874.47
2018-06-30T03:38:35.117Z,100872.75
2018-06-30T03:41:03.510Z,100875.80
2018-06-30T03:43:31.897Z,100870.61
2018-06-30T03:46:00.282Z,100874.91
2018-06-30T03:48:28.671Z,100875.76
2018-06-30T03:50:57.123Z,100875.38
2018-06-30T03:53:25.544Z,100879.14
2018-06-30T03:55:54.008Z,100876.86
2018-06-30T03:58:22.450Z,100878.19
2018-06-30T04:00:50.872Z,100882.97
2018-06-30T04:03:19.351Z,100883.06
2018-06-30T04:05:47.714Z,100888.48
2018-06-30T04:08:16.132Z,100885.89
2018-06-30T04:10:44.515Z,100883.77
2018-06-30T04:13:12.911Z,100881.30
2018-06-30T04:15:41.381Z,100885.73
2018-06-30T04:18:09.784Z,100887.95
2018-06-30T04:20:38.204Z,100880.58
2018-06-30T04:23:06.629Z,100879.22
2018-06-30T04:25:35.147Z,100877.89
2018-06-30T04:28:03.579Z,100885.77
2018-06-30T04:30:31.945Z,100884.00
2018-06-30T04:33:00.345Z,100887.76
2018-06-30T04:35:29.243Z,100893.67
2018-06-30T04:37:57.686Z,100891.36
2018-06-30T04:40:26.263Z,100895.66
2018-06-30T04:42:54.640Z,100897.71
2018-06-30T04:45:23.710Z,100903.62
2018-06-30T04:47:52.093Z,100900.14
2018-06-30T04:50:21.753Z,100906.48
2018-06-30T04:52:50.184Z,100906.05
2018-06-30T04:55:18.782Z,100910.34
2018-06-30T04:57:47.220Z,100911.95
2018-06-30T05:00:16.449Z,100907.13
2018-06-30T05:02:44.863Z,100908.70
2018-06-30T05:05:13.233Z,100906.41
2018-06-30T05:07:41.661Z,100901.63
2018-06-30T05:10:10.060Z,100903.70
2018-06-30T05:12:38.457Z,100868.58
2018-06-30T05:15:07.105Z,100897.58
2018-06-30T05:17:35.510Z,100900.18
2018-06-30T05:20:04.091Z,100897.44
2018-06-30T05:22:32.504Z,100900.81
2018-06-30T05:25:01.120Z,100897.73
2018-06-30T05:27:29.537Z,100903.70
2018-06-30T05:29:58.505Z,100904.07
2018-06-30T05:32:26.941Z,100907.05
2018-06-30T05:34:55.421Z,100903.07
2018-06-30T05:37:23.892Z,100899.58
2018-06-30T05:39:52.283Z,100898.16
2018-06-30T05:42:20.769Z,100892.52
2018-06-30T05:44:49.260Z,100898.94
2018-06-30T05:47:17.735Z,100901.45
2018-06-30T05:49:46.148Z,100895.38
2018-06-30T05:52:14.575Z,100889.69
2018-06-30T05:54:42.949Z,100894.77
2018-06-30T05:57:11.372Z,100894.77
2018-06-30T05:59:39.843Z,100892.49
2018-06-30T06:02:09.153Z,100888.47
2018-06-30T06:04:37.590Z,100889.29
2018-06-30T06:07:07.048Z,100893.09
2018-06-30T06:09:35.550Z,100890.91
2018-06-30T06:12:04.021Z,100890.01
2018-06-30T06:14:32.432Z,100889.06
2018-06-30T06:17:00.826Z,100891.55
2018-06-30T06:19:29.255Z,100894.95
2018-06-30T06:21:57.636Z,100889.26
2018-06-30T06:24:26.078Z,100890.07
2018-06-30T06:26:54.538Z,100886.98
2018-06-30T06:29:23.004Z,100883.41
2018-06-30T06:31:51.444Z,100886.73
2018-06-30T06:34:19.805Z,100888.78
2018-06-30T06:36:48.213Z,100886.05
2018-06-30T06:39:16.663Z,100885.07
2018-06-30T06:41:45.143Z,100883.67
2018-06-30T06:44:13.533Z,100888.30
2018-06-30T06:46:42.029Z,100887.80
2018-06-30T06:49:10.480Z,100888.66
2018-06-30T06:51:38.877Z,100884.30
2018-06-30T06:54:07.260Z,100885.56
2018-06-30T06:56:35.664Z,100881.98
2018-06-30T06:59:04.127Z,100886.18
2018-06-30T07:01:32.581Z,100885.19
2018-06-30T07:04:01.014Z,100885.59
2018-06-30T07:06:29.441Z,100882.91
2018-06-30T07:08:57.889Z,100883.70
2018-06-30T07:11:26.403Z,100882.70
2018-06-30T07:13:54.844Z,100879.52
2018-06-30T07:16:23.285Z,100880.71
2018-06-30T07:18:51.672Z,100881.47
2018-06-30T07:21:20.140Z,100882.32
2018-06-30T07:23:48.568Z,100876.66
2018-06-30T07:26:17.505Z,100880.06
2018-06-30T07:28:46.321Z,100879.52
2018-06-30T07:31:14.729Z,100877.67
2018-06-30T07:33:43.143Z,100874.92
2018-06-30T07:36:12.996Z,100869.20
2018-06-30T07:38:41.450Z,100875.61
2018-06-30T07:41:09.848Z,100871.20
2018-06-30T07:43:38.336Z,100875.11
2018-06-30T07:46:06.799Z,100876.41
2018-06-30T07:48:35.240Z,100877.27
2018-06-30T07:51:03.712Z,100883.92
2018-06-30T07:53:32.141Z,100818.48
2018-06-30T07:56:00.657Z,100876.86
2018-06-30T07:58:29.101Z,100882.32
2018-06-30T08:00:57.545Z,100879.91
2018-06-30T08:03:26.108Z,100880.81
2018-06-30T08:08:21.878Z,100880.24
2018-06-30T08:10:50.252Z,100875.86
2018-06-30T08:13:18.646Z,100870.64
2018-06-30T08:15:47.077Z,100868.56
2018-06-30T08:18:15.471Z,100868.11
2018-06-30T08:20:43.916Z,100875.08
2018-06-30T08:23:12.310Z,100875.03
2018-06-30T08:25:40.762Z,100871.22
2018-06-30T08:28:09.228Z,100868.04
2018-06-30T08:30:37.632Z,100862.29
2018-06-30T08:33:06.477Z,100861.83
2018-06-30T08:35:34.884Z,100859.27
2018-06-30T08:38:03.266Z,100837.72
2018-06-30T08:40:31.763Z,100863.41
2018-06-30T08:43:00.194Z,100858.31
2018-06-30T08:45:28.569Z,100860.29
2018-06-30T08:47:56.988Z,100860.16
2018-06-30T08:50:25.711Z,100850.44
2018-06-30T08:52:54.104Z,100843.83
2018-06-30T08:55:22.524Z,100841.84
2018-06-30T08:57:51.020Z,100836.53
2018-06-30T09:00:19.442Z,100842.17
2018-06-30T09:02:47.869Z,100837.25
2018-06-30T09:05:16.308Z,100838.44
2018-06-30T09:07:44.709Z,100836.12
2018-06-30T09:10:13.047Z,100841.41
2018-06-30T09:12:41.473Z,100839.80
2018-06-30T09:15:09.923Z,100829.87
2018-06-30T09:17:38.292Z,100839.98
2018-06-30T09:20:06.788Z,100839.47
2018-06-30T09:22:35.253Z,100842.81
2018-06-30T09:25:03.700Z,100838.83
2018-06-30T09:27:32.136Z,100838.68
2018-06-30T09:30:00.564Z,100838.44
2018-06-30T09:32:29.051Z,100834.39
2018-06-30T09:34:57.522Z,100838.98
2018-06-30T09:37:25.933Z,100837.73
2018-06-30T09:39:54.444Z,100840.66
2018-06-30T09:42:22.879Z,100832.38
2018-06-30T09:44:51.309Z,100834.72
2018-06-30T09:47:19.722Z,100838.97
2018-06-30T09:49:48.119Z,100836.09
2018-06-30T09:52:16.567Z,100841.38
2018-06-30T09:54:45.001Z,100836.69
2018-06-30T09:57:13.476Z,100835.28
2018-06-30T09:59:41.911Z,100836.89
2018-06-30T10:02:10.292Z,100840.88
2018-06-30T10:04:38.746Z,100835.85
2018-06-30T10:07:07.692Z,100836.24
2018-06-30T10:09:36.164Z,100832.59
2018-06-30T10:12:04.590Z,100834.45
2018-06-30T10:14:33.010Z,100828.54
2018-06-30T10:17:01.492Z,100830.67
2018-06-30T10:19:30.142Z,100832.30
2018-06-30T10:21:58.585Z,100827.80
2018-06-30T10:24:27.035Z,100828.09
2018-06-30T10:26:55.501Z,100839.78
2018-06-30T10:29:24.039Z,100835.93
2018-06-30T10:31:52.431Z,100825.53
2018-06-30T10:34:20.849Z,100833.97
2018-06-30T10:36:49.246Z,100827.36
2018-06-30T10:39:17.690Z,100819.00
2018-06-30T10:41:46.102Z,100820.46
2018-06-30T10:44:14.524Z,100820.66
2018-06-30T10:46:42.930Z,100822.43
2018-06-30T10:49:12.056Z,100817.38
2018-06-30T10:51:40.501Z,100810.97
2018-06-30T10:54:09.022Z,100816.74
2018-06-30T10:56:37.393Z,100811.16
2018-06-30T10:59:05.845Z,100811.36
2018-06-30T11:01:34.249Z,100814.20
2018-06-30T11:04:02.769Z,100803.91
2018-06-30T11:06:31.139Z,100803.66
2018-06-30T11:08:59.580Z,100801.05
2018-06-30T11:11:28.033Z,100808.77
2018-06-30T11:13:56.462Z,100811.45
2018-06-30T11:16:24.921Z,100818.39
2018-06-30T11:18:53.345Z,100812.77
2018-06-30T11:21:21.753Z,100808.84
2018-06-30T11:23:50.180Z,100803.65
2018-06-30T11:26:18.570Z,100807.85
2018-06-30T11:28:47.115Z,100808.88
2018-06-30T11:31:15.582Z,100805.80
2018-06-30T11:33:44.026Z,100796.70
2018-06-30T11:36:12.450Z,100797.36
2018-06-30T11:38:40.859Z,100796.70
2018-06-30T11:41:09.737Z,100642.36
2018-06-30T11:43:38.285Z,100793.50
2018-06-30T11:46:06.754Z,100794.51
2018-06-30T11:48:35.229Z,100794.21
2018-06-30T11:51:03.658Z,100800.04
2018-06-30T11:53:32.556Z,100798.23
2018-06-30T11:56:00.985Z,100789.84
2018-06-30T11:58:29.475Z,100793.08
2018-06-30T12:00:57.895Z,100786.50
2018-06-30T12:03:26.371Z,100781.55
2018-06-30T12:05:54.849Z,100776.53
2018-06-30T12:08:23.737Z,100780.17
2018-06-30T12:10:52.177Z,100775.07
2018-06-30T12:13:20.600Z,100779.84
2018-06-30T12:15:49.013Z,100771.23
2018-06-30T12:18:17.901Z,100764.64
2018-06-30T12:20:46.352Z,100764.80
2018-06-30T12:23:14.774Z,100772.16
2018-06-30T12:25:43.153Z,100768.39
2018-06-30T12:28:11.594Z,100764.05
2018-06-30T12:30:40.021Z,100759.80
2018-06-30T12:33:08.451Z,100758.70
2018-06-30T12:35:36.933Z,100757.00
2018-06-30T12:38:05.546Z,100751.23
2018-06-30T12:40:33.954Z,100755.41
2018-06-30T12:43:02.426Z,100756.63
2018-06-30T12:45:31.054Z,100751.80
2018-06-30T12:47:59.595Z,100744.95
2018-06-30T12:50:28.010Z,100754.69
2018-06-30T12:52:57.444Z,100748.85
2018-06-30T12:55:25.835Z,100741.34
2018-06-30T12:57:54.260Z,100742.70
2018-06-30T13:00:22.696Z,100738.48
2018-06-30T13:02:51.192Z,100723.41
2018-06-30T13:05:19.603Z,100736.02
2018-06-30T13:07:48.093Z,100734.22
2018-06-30T13:10:16.544Z,100738.70
2018-06-30T13:12:44.980Z,100734.84
2018-06-30T13:15:13.348Z,100723.77
2018-06-30T13:17:41.779Z,100723.52
2018-06-30T13:20:10.192Z,100724.03
2018-06-30T13:22:38.647Z,100723.70
2018-06-30T13:25:07.097Z,100723.11
2018-06-30T13:27:35.839Z,100721.63
2018-06-30T13:30:05.001Z,100716.29
2018-06-30T13:32:33.599Z,100716.81
2018-06-30T13:35:02.031Z,100714.89
2018-06-30T13:37:30.469Z,100716.62
2018-06-30T13:39:58.964Z,100713.69
2018-06-30T13:42:27.411Z,100709.97
2018-06-30T13:44:55.918Z,100704.80
2018-06-30T13:47:24.328Z,100711.05
2018-06-30T13:49:52.779Z,100709.39
2018-06-30T13:52:21.196Z,100705.39
2018-06-30T13:54:49.662Z,100707.23
2018-06-30T13:57:18.091Z,100706.12
2018-06-30T13:59:46.533Z,100710.39
2018-06-30T14:02:14.952Z,100706.31
2018-06-30T14:04:43.901Z,100706.90
2018-06-30T14:07:12.350Z,100704.87
2018-06-30T14:09:40.730Z,100710.12
2018-06-30T14:12:09.197Z,100704.87
2018-06-30T14:14:37.596Z,100708.05
2018-06-30T14:17:06.060Z,100698.69
2018-06-30T14:19:34.638Z,100706.02
2018-06-30T14:22:03.109Z,100695.36
2018-06-30T14:24:31.489Z,100691.27
2018-06-30T14:27:00.008Z,100696.12
2018-06-30T14:29:28.430Z,100697.05
2018-06-30T14:31:56.808Z,100687.16
2018-06-30T14:34:25.243Z,100687.27
2018-06-30T14:36:53.763Z,100668.36
2018-06-30T14:39:22.202Z,100681.99
2018-06-30T14:41:50.615Z,100663.31
2018-06-30T14:44:27.000Z,100675.16
2018-06-30T14:46:55.603Z,100680.44
2018-06-30T14:49:24.141Z,100677.84
2018-06-30T14:51:52.654Z,100677.11
2018-06-30T14:54:21.120Z,100675.10
2018-06-30T14:56:49.601Z,100676.42
2018-06-30T14:59:18.544Z,100677.64
2018-06-30T15:01:47.187Z,100676.87
2018-06-30T15:04:15.653Z,100683.86
2018-06-30T15:06:44.110Z,100670.83
2018-06-30T15:09:14.625Z,100669.41
2018-06-30T15:11:44.374Z,100668.83
2018-06-30T15:14:13.551Z,100669.83
2018-06-30T15:16:43.732Z,100667.25
2018-06-30T15:19:12.209Z,100667.03
2018-06-30T15:21:40.684Z,100661.81
2018-06-30T15:24:09.859Z,100662.36
2018-06-30T15:26:38.394Z,100647.86
2018-06-30T15:29:06.864Z,100661.81
2018-06-30T15:31:35.410Z,100657.80
2018-06-30T15:34:03.884Z,100660.81
2018-06-30T15:36:33.220Z,100657.41
2018-06-30T15:39:01.728Z,100658.28
2018-06-30T15:41:30.231Z,100652.00
2018-06-30T15:43:58.676Z,100649.28
2018-06-30T15:46:27.129Z,100654.88
2018-06-30T15:48:55.572Z,100652.58
2018-06-30T15:51:23.989Z,100655.91
2018-06-30T15:53:52.486Z,100653.11
2018-06-30T15:56:20.872Z,100656.38
2018-06-30T15:58:49.385Z,100656.75
2018-06-30T16:01:18.804Z,100661.55
2018-06-30T16:03:47.281Z,100655.06
2018-06-30T16:06:15.674Z,100658.44
2018-06-30T16:08:44.177Z,100657.59
2018-06-30T16:11:12.545Z,100652.10
2018-06-30T16:13:41.012Z,100653.80
2018-06-30T16:16:09.465Z,100648.67
2018-06-30T16:18:52.548Z,100649.89
2018-06-30T16:21:20.990Z,100652.67
2018-06-30T16:23:49.462Z,100646.73
2018-06-30T16:26:17.861Z,100647.35
2018-06-30T16:28:46.341Z,100644.83
2018-06-30T16:31:15.428Z,100640.28
2018-06-30T16:33:43.847Z,100639.55
2018-06-30T16:36:12.313Z,100641.64
2018-06-30T16:38:40.757Z,100634.05
2018-06-30T16:41:09.145Z,100640.47
2018-06-30T16:43:37.755Z,100632.95
2018-06-30T16:46:06.327Z,100638.27
2018-06-30T16:48:34.824Z,100630.24
2018-06-30T16:51:03.697Z,100633.14
2018-06-30T16:53:32.105Z,100632.26
2018-06-30T16:56:00.543Z,100636.66
2018-06-30T16:58:28.933Z,100634.19
2018-06-30T17:00:57.384Z,100638.44
2018-06-30T17:03:25.808Z,100629.20
2018-06-30T17:05:54.252Z,100628.45
2018-06-30T17:08:23.390Z,100638.45
2018-06-30T17:10:52.436Z,100631.25
2018-06-30T17:13:21.052Z,100632.41
2018-06-30T17:15:49.498Z,100638.08
2018-06-30T17:18:17.953Z,100631.28
2018-06-30T17:20:46.401Z,100628.52
2018-06-30T17:23:14.846Z,100633.52
2018-06-30T17:25:43.322Z,100631.25
2018-06-30T17:28:11.808Z,100633.92
2018-06-30T17:30:40.732Z,100635.98
2018-06-30T17:33:09.163Z,100634.89
2018-06-30T17:35:37.632Z,100636.98
2018-06-30T17:38:06.055Z,100641.27
2018-06-30T17:40:34.482Z,100633.50
2018-06-30T17:43:02.949Z,100636.22
2018-06-30T17:45:31.391Z,100638.89
2018-06-30T17:47:59.828Z,100635.73
2018-06-30T17:50:28.301Z,100633.05
2018-06-30T17:52:56.711Z,100639.50
2018-06-30T17:55:25.112Z,100648.31
2018-06-30T17:57:53.672Z,100646.54
2018-06-30T18:00:22.099Z,100648.27
2018-06-30T18:02:50.521Z,100645.17
2018-06-30T18:05:18.927Z,100644.96
2018-06-30T18:07:47.343Z,100653.78
2018-06-30T18:10:15.924Z,100659.84
2018-06-30T18:12:44.353Z,100651.75
2018-06-30T18:15:12.739Z,100661.11
2018-06-30T18:17:41.308Z,100664.92
2018-06-30T18:20:09.781Z,100663.70
2018-06-30T18:22:38.249Z,100654.22
2018-06-30T18:25:06.703Z,100656.03
2018-06-30T18:27:35.129Z,100658.02
2018-06-30T18:30:03.646Z,100661.55
2018-06-30T18:32:32.038Z,100658.93
2018-06-30T18:35:00.432Z,100660.53
2018-06-30T18:37:28.860Z,100648.88
2018-06-30T18:39:57.429Z,100655.73
2018-06-30T18:42:25.840Z,100660.06
2018-06-30T18:44:54.244Z,100661.86
2018-06-30T18:47:22.656Z,100668.23
2018-06-30T18:49:51.752Z,100671.02
2018-06-30T18:52:20.248Z,100671.27
2018-06-30T18:54:49.158Z,100673.95
2018-06-30T18:57:17.642Z,100672.92
2018-06-30T18:59:46.036Z,100682.73
2018-06-30T19:02:14.472Z,100680.75
2018-06-30T19:04:42.947Z,100682.58
2018-06-30T19:07:11.439Z,100691.47
2018-06-30T19:09:39.909Z,100694.67
2018-06-30T19:12:08.396Z,100694.47
2018-06-30T19:14:36.809Z,100701.16
2018-06-30T19:17:05.253Z,100699.45
2018-06-30T19:19:33.724Z,100702.34
2018-06-30T19:22:02.129Z,100710.02
2018-06-30T19:24:30.517Z,100714.21
2018-06-30T19:26:58.917Z,100714.98
2018-06-30T19:29:27.319Z,100719.64
2018-06-30T19:31:55.752Z,100725.75
2018-06-30T19:34:24.156Z,100728.30
2018-06-30T19:36:52.567Z,100735.20
2018-06-30T19:39:21.035Z,100742.98
2018-06-30T19:41:49.511Z,100743.69
2018-06-30T19:44:17.958Z,100751.64
2018-06-30T19:46:46.549Z,100751.58
2018-06-30T19:49:14.931Z,100756.34
2018-06-30T19:51:43.468Z,100758.61
2018-06-30T19:54:11.949Z,100762.90
2018-06-30T19:56:40.376Z,100763.95
2018-06-30T19:59:08.847Z,100773.05
2018-06-30T20:01:37.272Z,100772.95
2018-06-30T20:04:05.736Z,100783.52
2018-06-30T20:06:34.187Z,100776.42
2018-06-30T20:09:02.648Z,100782.73
2018-06-30T20:11:31.091Z,100785.78
2018-06-30T20:13:59.571Z,100789.63
2018-06-30T20:16:28.872Z,100784.66
2018-06-30T20:18:58.121Z,100789.66
2018-06-30T20:21:26.633Z,100791.73
2018-06-30T20:23:55.053Z,100790.99
2018-06-30T20:26:23.436Z,100800.03
2018-06-30T20:28:51.936Z,100794.88
2018-06-30T20:31:20.430Z,100795.41
2018-06-30T20:33:48.951Z,100801.51
2018-06-30T20:36:17.344Z,100793.81
2018-06-30T20:38:46.528Z,100806.58
2018-06-30T20:41:14.964Z,100803.01
2018-06-30T20:43:43.362Z,100815.03
2018-06-30T20:46:11.874Z,100810.86
2018-06-30T20:48:40.309Z,100814.60
2018-06-30T20:51:09.822Z,100813.55
2018-06-30T20:53:38.299Z,100813.81
2018-06-30T20:56:06.737Z,100821.05
2018-06-30T20:58:35.473Z,100826.53
2018-06-30T21:01:03.939Z,100823.14
2018-06-30T21:03:32.427Z,100823.83
2018-06-30T21:06:00.869Z,100830.17
2018-06-30T21:08:29.323Z,100833.28
2018-06-30T21:10:57.716Z,100832.92
2018-06-30T21:13:26.160Z,100838.29
2018-06-30T21:15:55.125Z,100840.46
2018-06-30T21:18:23.492Z,100842.50
2018-06-30T21:20:51.950Z,100851.22
2018-06-30T21:23:20.404Z,100850.45
2018-06-30T21:25:49.043Z,100853.64
2018-06-30T21:28:17.453Z,100851.80
2018-06-30T21:30:45.916Z,100853.67
2018-06-30T21:33:14.379Z,100855.70
2018-06-30T21:35:42.782Z,100853.77
2018-06-30T21:38:12.937Z,100847.13
2018-06-30T21:40:41.424Z,100845.89
2018-06-30T21:43:10.160Z,100835.84
2018-06-30T21:45:38.588Z,100833.56
2018-06-30T21:48:08.035Z,100832.54
2018-06-30T21:50:36.571Z,100836.06
2018-06-30T21:53:05.090Z,100837.54
2018-06-30T21:55:33.502Z,100841.52
2018-06-30T21:58:04.712Z,100842.82
2018-06-30T22:00:50.791Z,100840.33
2018-06-30T22:03:22.931Z,100844.72
2018-06-30T22:05:52.837Z,100840.92
2018-06-30T22:08:21.461Z,100854.37
2018-06-30T22:10:50.268Z,100847.57
2018-06-30T22:13:19.183Z,100848.08
2018-06-30T22:15:47.799Z,100851.48
2018-06-30T22:18:16.306Z,100844.28
2018-06-30T22:20:44.676Z,100847.89
2018-06-30T22:23:13.096Z,100850.58
2018-06-30T22:25:41.589Z,100854.66
2018-06-30T22:28:10.295Z,100845.59
2018-06-30T22:30:38.762Z,100852.73
2018-06-30T22:33:07.186Z,100851.22
2018-06-30T22:35:36.133Z,100858.14
2018-06-30T22:38:04.786Z,100865.28
2018-06-30T22:40:33.176Z,100871.58
2018-06-30T22:43:01.602Z,100869.95
2018-06-30T22:45:30.101Z,100866.41
2018-06-30T22:47:58.648Z,100866.92
2018-06-30T22:50:27.080Z,100874.93
2018-06-30T22:52:56.001Z,100876.45
2018-06-30T22:55:24.401Z,100877.75
2018-06-30T22:57:53.745Z,100877.86
2018-06-30T23:00:22.803Z,100883.55
2018-06-30T23:02:51.179Z,100890.52
2018-06-30T23:05:19.721Z,100891.63
2018-06-30T23:07:48.136Z,100885.83
2018-06-30T23:10:16.550Z,100889.77
2018-06-30T23:12:45.370Z,100887.71
2018-06-30T23:15:14.055Z,100891.77
2018-06-30T23:17:42.462Z,100897.06
2018-06-30T23:20:10.931Z,100895.91
2018-06-30T23:25:41.218Z,100896.83
2018-06-30T23:28:09.801Z,100897.75
2018-06-30T23:30:38.680Z,100897.40
2018-06-30T23:33:07.126Z,100894.80
2018-06-30T23:35:35.554Z,100897.73
2018-06-30T23:38:04.592Z,100898.48
2018-06-30T23:40:33.083Z,100895.98
2018-06-30T23:43:01.503Z,100891.29
2018-06-30T23:45:30.025Z,100897.73
2018-06-30T23:47:58.485Z,100887.21
2018-06-30T23:50:26.907Z,100894.23
2018-06-30T23:52:55.873Z,100892.19
2018-06-30T23:55:24.284Z,100900.86
2018-06-30T23:57:52.746Z,100907.92
